Flight Track Log - Related Links

Times and Time Zones

All times are in EDT time to prevent confusion due to time zone crossing. See the N968SA flight status page for this flight to view local times or setup timezone preferences in your user account.

Time Position Orientation Groundspeed Altitude Reporting Facility
EDT Latitude Longitude Course Direction KTS MPH feet Rate Location/Type
Sun 02:58:00 PM 32.8819 -79.7740 44° Northeast  Level FlightAware Approximate
Sun 02:59:00 PM 32.9132 -79.7374 44° Northeast  Level FlightAware Approximate
Sun 03:00:00 PM 32.9465 -79.7035 40° Northeast  Level FlightAware Approximate
Sun 03:01:00 PM 32.9780 -79.6672 44° Northeast  Level FlightAware Approximate
Sun 03:02:00 PM 33.0093 -79.6305 45° Northeast  Level FlightAware Approximate
Sun 03:03:00 PM 33.0405 -79.5938 45° Northeast  Level FlightAware Approximate
Sun 03:04:00 PM 33.0718 -79.5571 45° Northeast  Level FlightAware Approximate
Sun 03:05:00 PM 33.1030 -79.5204 45° Northeast  Level FlightAware Approximate
Sun 03:06:00 PM 33.1342 -79.4837 45° Northeast  Level FlightAware Approximate
Sun 03:07:00 PM 33.1654 -79.4469 45° Northeast  Level FlightAware Approximate
Sun 03:08:00 PM 33.1966 -79.4100 45° Northeast  Level FlightAware Approximate
Sun 03:09:00 PM 33.2278 -79.3732 45° Northeast  Level FlightAware Approximate
Sun 03:10:00 PM 33.2595 -79.3370 44° Northeast  Level FlightAware Approximate
Sun 03:11:00 PM 33.2912 -79.3008 44° Northeast  Level FlightAware Approximate
Sun 03:12:00 PM 33.3230 -79.2646 44° Northeast  Level FlightAware Approximate
Sun 03:13:00 PM 33.3548 -79.2284 44° Northeast  Level FlightAware Approximate
Sun 03:14:00 PM 33.3865 -79.1922 44° Northeast  Level FlightAware Approximate
Sun 03:15:00 PM 33.4182 -79.1560 44° Northeast  Level FlightAware Approximate
Sun 03:16:00 PM 33.4499 -79.1197 44° Northeast  Level FlightAware Approximate
Sun 03:17:00 PM 33.4817 -79.0834 44° Northeast  Level FlightAware Approximate
Sun 03:18:00 PM 33.5134 -79.0470 44° Northeast  Level FlightAware Approximate
Sun 03:19:00 PM 33.5450 -79.0107 44° Northeast  Level FlightAware Approximate
Sun 03:20:00 PM 33.5767 -78.9743 44° Northeast  Level FlightAware Approximate
Sun 03:21:00 PM 33.6084 -78.9379 44° Northeast  Level FlightAware Approximate
Sun 03:22:00 PM 33.6400 -78.9014 44° Northeast  Level FlightAware Approximate
Sun 03:23:00 PM 33.6716 -78.8650 44° Northeast  Level FlightAware Approximate
Sun 03:24:00 PM 33.7033 -78.8285 44° Northeast  Level FlightAware Approximate
Sun 03:25:00 PM 33.7349 -78.7920 44° Northeast  Level FlightAware Approximate
Sun 03:26:00 PM 33.7665 -78.7554 44° Northeast  Level FlightAware Approximate
Sun 03:27:00 PM 33.7981 -78.7188 44° Northeast  Level FlightAware Approximate
Sun 03:28:00 PM 33.8375 -78.6960 25° Northeast  Level FlightAware Approximate
Sun 03:29:00 PM 33.8773 -78.6739 25° Northeast  Level FlightAware Approximate
Sun 03:30:00 PM 33.9171 -78.6519 25° Northeast  Level FlightAware Approximate
Sun 03:31:00 PM 33.9570 -78.6298 25° Northeast  Level FlightAware Approximate
Sun 03:32:00 PM 33.9968 -78.6077 25° Northeast  Level FlightAware Approximate
Sun 03:33:00 PM 34.0367 -78.5856 25° Northeast  Level FlightAware Approximate
Sun 03:34:00 PM 34.0765 -78.5634 25° Northeast  Level FlightAware Approximate
Sun 03:35:00 PM 34.1163 -78.5413 25° Northeast  Level FlightAware Approximate
Sun 03:36:00 PM 34.1561 -78.5191 25° Northeast  Level FlightAware Approximate
Sun 03:37:00 PM 34.1959 -78.4969 25° Northeast  Level FlightAware Approximate
Sun 03:38:00 PM 34.2357 -78.4746 25° Northeast  Level FlightAware Approximate
Sun 03:39:00 PM 34.2755 -78.4522 25° Northeast  Level FlightAware Approximate
Sun 03:40:00 PM 34.3152 -78.4296 25° Northeast  Level FlightAware Approximate
Sun 03:41:00 PM 34.3548 -78.4070 25° Northeast  Level FlightAware Approximate
Sun 03:42:00 PM 34.3945 -78.3843 25° Northeast  Level FlightAware Approximate
Sun 03:43:00 PM 34.4342 -78.3617 25° Northeast  Level FlightAware Approximate
Sun 03:44:00 PM 34.4738 -78.3390 25° Northeast  Level FlightAware Approximate
Sun 03:45:00 PM 34.5135 -78.3163 25° Northeast  Level FlightAware Approximate
Sun 03:46:00 PM 34.5531 -78.2936 25° Northeast  Level FlightAware Approximate
Sun 03:47:00 PM 34.5928 -78.2708 25° Northeast  Level FlightAware Approximate
Sun 03:48:00 PM 34.6320 -78.2470 27° Northeast  Level FlightAware Approximate
Sun 03:49:00 PM 34.6711 -78.2228 27° Northeast  Level FlightAware Approximate
Sun 03:50:00 PM 34.7102 -78.1987 27° Northeast  Level FlightAware Approximate
Sun 03:51:00 PM 34.7492 -78.1745 27° Northeast  Level FlightAware Approximate
Sun 03:52:00 PM 34.7883 -78.1503 27° Northeast  Level FlightAware Approximate
Sun 03:52:50 PM 34.8544 -78.1256 22° Northeast 175 201 9,000  Level Washington Center
Sun 03:53:00 PM 34.8274 -78.1261 27° Northeast  Level FlightAware Approximate
Sun 03:53:50 PM 34.9028 -78.1017 22° Northeast 175 201 9,000  Level Washington Center
Sun 03:54:00 PM 34.8665 -78.1019 27° Northeast  Level FlightAware Approximate
Sun 03:54:51 PM 34.9431 -78.0750 28° Northeast 174 200 9,000  Level Washington Center
Sun 03:55:00 PM 34.9056 -78.0776 27° Northeast  Level FlightAware Approximate
Sun 03:55:51 PM 34.9894 -78.0511 23° Northeast 174 200 9,000  Level Washington Center
Sun 03:56:00 PM 34.9446 -78.0533 27° Northeast  Level FlightAware Approximate
Sun 03:56:52 PM 35.0317 -78.0244 27° Northeast 176 203 9,000  Level Washington Center
Sun 03:57:00 PM 34.9850 -78.0325 22° Northeast  Level FlightAware Approximate
Sun 03:57:59 PM 35.0803 -77.9981 24° Northeast 176 203 9,000  Level Washington Center
Sun 03:58:00 PM 35.0256 -78.0123 22° Northeast  Level FlightAware Approximate
Sun 03:58:59 PM 35.1289 -77.9692 26° Northeast 177 204 9,000  Level Washington Center
Sun 04:00:01 PM 35.1711 -77.9450 25° Northeast 176 203 9,000  Level Washington Center
Sun 04:01:02 PM 35.2153 -77.9183 26° Northeast 175 201 9,000  Level Washington Center
Sun 04:02:03 PM 35.2619 -77.8892 27° Northeast 175 201 9,000  Level Washington Center
Sun 04:03:03 PM 35.3061 -77.8650 24° Northeast 176 203 9,000  Level Washington Center
Sun 04:04:03 PM 35.3483 -77.8356 30° Northeast 174 200 9,000  Level Washington Center
Sun 04:05:04 PM 35.3947 -77.8114 23° Northeast 173 199 9,000  Level Washington Center
Sun 04:05:25 PM 35.4053 -77.8014 38° Northeast 171 197 9,000  Level Washington Center
Sun 04:05:59 PM 35.4306 -77.7919 17° North 172 198 9,000  Level Washington Center
Sun 04:06:26 PM 35.4475 -77.7769 36° Northeast 179 206 9,000 71 Level Washington Center
Sun 04:07:24 PM 35.4919 -77.7528 24° Northeast 191 220 9,100 50 Climbing Washington Center
Sun 04:08:25 PM 35.5342 -77.7258 27° Northeast 176 203 9,100  Level Washington Center
Sun 04:09:26 PM 35.5806 -77.6989 25° Northeast 176 203 9,100  Level Washington Center
Sun 04:10:26 PM 35.6289 -77.6722 24° Northeast 176 203 9,100 -51 Level Washington Center
Sun 04:11:24 PM 35.6669 -77.6475 28° Northeast 176 203 9,000 -50 Descending Washington Center
Sun 04:12:25 PM 35.7069 -77.6231 26° Northeast 171 197 9,000  Level Washington Center
Sun 04:13:25 PM 35.7492 -77.5986 25° Northeast 171 197 9,000  Level Washington Center
Sun 04:14:24 PM 35.7933 -77.5739 24° Northeast 166 191 9,000  Level Washington Center
Sun 04:15:25 PM 35.8356 -77.5469 27° Northeast 166 191 9,000  Level Washington Center
Sun 04:16:25 PM 35.8775 -77.5247 23° Northeast 166 191 9,000  Level Washington Center
Sun 04:17:26 PM 35.9197 -77.5003 25° Northeast 166 191 9,000  Level Washington Center
Sun 04:18:24 PM 35.9619 -77.4731 28° Northeast 166 191 9,000  Level Washington Center
Sun 04:19:25 PM 36.0061 -77.4458 26° Northeast 166 191 9,000  Level Washington Center
Sun 04:20:25 PM 36.0481 -77.4236 23° Northeast 161 185 9,000  Level Washington Center
Sun 04:21:26 PM 36.0883 -77.3964 29° Northeast 161 185 9,000  Level Washington Center
Sun 04:22:23 PM 36.1325 -77.3692 26° Northeast 161 185 9,000  Level Washington Center
Sun 04:23:24 PM 36.1744 -77.3442 26° Northeast 161 185 9,000  Level Washington Center
Sun 04:24:25 PM 36.2167 -77.3169 27° Northeast 161 185 9,000  Level Washington Center
Sun 04:25:25 PM 36.2586 -77.2947 23° Northeast 161 185 9,000  Level Washington Center
Sun 04:26:24 PM 36.3008 -77.2647 30° Northeast 161 185 9,000  Level Washington Center
Sun 04:27:25 PM 36.3428 -77.2422 23° Northeast 161 185 9,000  Level Washington Center
Sun 04:28:25 PM 36.3850 -77.2147 28° Northeast 161 185 9,000 61 Level Washington Center
Sun 04:29:04 PM 36.4144 -77.2000 22° Northeast 162 186 9,100  Climbing Washington Center
Sun 04:29:26 PM 36.4228 -77.1925 36° Northeast 161 185 9,000 -162 Descending Washington Center
Sun 04:29:41 PM 36.4397 -77.1850 20° North 163 188 9,000 -207 Level Washington Center
Sun 04:30:24 PM 36.4669 -77.1647 31° Northeast 161 185 8,800 -310 Descending Washington Center
Sun 04:30:39 PM 36.4839 -77.1600 13° North 172 198 8,700 -590 Descending Washington Center
Sun 04:31:25 PM 36.5133 -77.1375 32° Northeast 161 185 8,200 -563 Descending Washington Center
Sun 04:31:43 PM 36.5281 -77.1325 15° North 182 209 8,100 -500 Descending Washington Center
Sun 04:32:25 PM 36.5575 -77.1125 29° Northeast 166 191 7,700 -466 Descending Washington Center
Sun 04:33:26 PM 36.6036 -77.0822 28° Northeast 173 199 7,300 -349 Descending Washington Center
Sun 04:33:51 PM 36.6247 -77.0722 21° North 186 214 7,200 -414 Descending Washington Center
Sun 04:34:24 PM 36.6500 -77.0547 29° Northeast 178 205 6,900 -381 Descending Washington Center
Sun 04:34:54 PM 36.6753 -77.0369 29° Northeast 180 207 6,800 -295 Descending Washington Center
Sun 04:35:25 PM 36.6919 -77.0269 26° Northeast 178 205 6,600 -330 Descending Washington Center
Sun 04:36:25 PM 36.7361 -76.9914 33° Northeast 178 205 6,300 -400 Descending Washington Center
Sun 04:36:40 PM 36.7467 -76.9814 37° Northeast 186 214 6,100 -500 Descending Washington Center
Sun 04:37:25 PM 36.7700 -76.9481 49° Northeast 183 211 5,800 -400 Descending Washington Center
Sun 04:37:40 PM 36.7806 -76.9378 38° Northeast 184 212 5,700 -590 Descending Washington Center
Sun 04:38:26 PM 36.8144 -76.8994 42° Northeast 183 211 5,200 -689 Descending Washington Center
Sun 04:38:41 PM 36.8208 -76.8892 52° Northeast 185 213 5,000 -512 Descending Washington Center
Sun 04:39:48 PM 36.8569 -76.8406 47° Northeast 173 199 4,500 -469 Descending Washington Center
Sun 04:40:49 PM 36.8906 -76.7969 46° Northeast 174 200 4,000 -545 Descending Washington Center
Sun 04:41:49 PM 36.9244 -76.7481 49° Northeast 172 198 3,400 -520 Descending Washington Center
Sun 04:42:56 PM 36.9625 -76.7019 44° Northeast 173 199 2,900 -446 Descending Washington Center
Sun 04:43:50 PM 36.9961 -76.6686 38° Northeast 170 196 2,500 -417 Descending Washington Center
Sun 04:44:51 PM 37.0342 -76.6325 37° Northeast 170 196 2,100 -197 Descending Washington Center
Sun 04:45:52 PM 37.0719 -76.6069 28° Northeast 159 183 2,100 -344 Level Washington Center
Sun 04:46:53 PM 37.0950 -76.5631 57° Northeast 150 173 1,400 -563 Descending Washington Center
Sun 04:48:00 PM 37.1142 -76.5294 54° Northeast 94 108 900 -448 Descending Washington Center

Login

Don't have an account? Register now (free) for customized features, flight alerts, and more!